Terminal Aerodrome Forecast
Issued by NWS

Home | Current Version | Previous Version | Text Only | Print | Product List | Glossary On
Versions: 1 2 3 4 5 6 7 8 9 10 11 12 13 14 15 16 17 18
000
FTUS45 KRIW 042300
TAFRKS
TAF
KRKS 042325Z 0500/0524 23009KT P6SM SKC
     FM050700 26014KT P6SM SKC
     FM051700 26018G26KT P6SM SKC=

USA.gov is the U.S. government's official web portal to all federal, state and local government web resources and services.